Passumpsic, Vermont
Current Conditions -  °F | °C
As of 11:52 PM on Sunday 19 Oct 2014 (Local Time) from KHIE Reporting Station
Overcast Overcast  
Wind Chill: 32°   Ceiling: 4800
Heat Index: 38°   Visibility: 10mi
Dew Point: 27°   Wind: 8mph
Humidity: 65%   Direction: 270°W
Pressure: 29.9"   Gusts: NA
Location:  44.38°N, 72.03°W
Report Text: KHIE 200352Z AUTO 27007KT 240V310 10SM OVC048 03/M03 A2990 RMK AO2 SLP136 T00331028
Loading
Personal Weather Stations






























Interactive Weather Map
Tropical Storm Tracking
New forecast layout! Learn more

10-Day Weather Forecast

Advertisements
Track Severe Weather on mobile